Latest Coastal Weather Observations for Learmonth

IDW60701

Issued at 11:02 am WST Monday 6 July 2015 (issued every 10 minutes, with the page automatically refreshed every 10 minutes)

About coastal observations | Map of coastal stations | Coastal observations for WA | Marine services | Other Formats
Station Details ID: 005007 Name: LEARMONTH AIRPORT Lat: -22.24 Lon: 114.10 Height: 5.0 m
Data from the previous 72 hours. | See also: Recent months at Learmonth
Date/Time
WST
Temp

°C
Wind Pressure Rain
since 9am
mm
Weather Cloud Vis
km
Sea
Height
m
Swell
Dir
 
Speed
knots
Gust
knots
hPa Trend Height
m
Period
s
Dir
06/10:30am 21.5 SSE 6 9 1019.1 - 0.0 - - 10 - - - -
06/10:00am 21.2 SE 8 10 1019.3 - 0.0 - - 10 - - - -
06/09:30am 20.5 SE 6 8 1019.4 - 0.0 - - 10 - - - -
06/09:00am 18.9 SSW 5 7 1019.1 S 0.0 Fine Clear 30 - - - -
06/08:30am 17.2 WSW 5 7 1019.0 - 0.0 - - 10 - - - -
06/08:00am 14.7 SW 6 8 1018.7 - 0.0 - - 10 - - - -
06/07:30am 12.4 SW 7 8 1018.4 - 0.0 - - 10 - - - -
06/07:00am 11.8 SW 8 10 1018.1 - 0.0 - - 10 - - - -
06/06:30am 12.1 SW 7 8 1017.9 - 0.0 - - 10 - - - -
06/06:00am 11.9 SW 8 9 1017.6 F 0.0 Fine Clear 30 - - - -
06/05:30am 12.0 SW 8 9 1017.6 - 0.0 - - 10 - - - -
06/05:00am 12.5 SW 9 10 1017.7 - 0.0 - - 10 - - - -
06/04:30am 12.8 SW 8 9 1017.8 - 0.0 - - 10 - - - -
06/04:00am 12.7 SW 8 9 1017.9 - 0.0 - - 10 - - - -
06/03:30am 13.1 SSW 7 9 1017.8 - 0.0 - - 10 - - - -
06/03:00am 13.4 SW 9 10 1017.8 - 0.0 - - 10 - - - -
06/02:30am 13.4 SW 7 8 1018.2 - 0.0 - - 10 - - - -
06/02:00am 14.1 SSW 9 10 1018.3 - 0.0 - - 10 - - - -
06/01:30am 14.2 SSW 9 10 1018.4 - 0.0 - - 10 - - - -
06/01:00am 14.3 SSW 8 9 1018.6 - 0.0 - - 10 - - - -
06/12:30am 15.1 SSW 10 12 1018.7 - 0.0 - - 10 - - - -
06/12:00am 15.0 SSW 9 10 1018.8 - 0.0 - - 10 - - - -
 
Date/Time
WST
Temp

°C
Wind Pressure Rain
since 9am
mm
Weather Cloud Vis
km
Sea
Height
m
Swell
Dir
 
Speed
knots
Gust
knots
hPa Trend Height
m
Period
s
Dir
05/11:30pm 15.7 S 9 11 1018.9 - 0.0 - - 10 - - - -
05/11:00pm 16.4 SSW 11 14 1018.7 - 0.0 - - 10 - - - -
05/10:30pm 17.0 S 12 15 1018.5 - 0.0 - - 10 - - - -
05/10:00pm 17.3 SSW 11 14 1018.6 - 0.0 - - 10 - - - -
05/09:30pm 17.1 SSW 11 13 1018.6 - 0.0 - - 10 - - - -
05/09:00pm 15.9 SSW 5 7 1018.6 - 0.0 - - 10 - - - -
05/08:30pm 16.6 SSW 7 12 1018.6 - 0.0 - - 10 - - - -
05/08:00pm 17.1 SSW 8 10 1018.4 - 0.0 - - 10 - - - -
05/07:30pm 16.5 WSW 9 10 1018.2 - 0.0 - - 10 - - - -
05/07:00pm 17.1 NNW 6 11 1017.9 - 0.0 - - 10 - - - -
05/06:30pm 17.9 N 7 7 1017.6 - 0.0 - - 10 - - - -
05/06:00pm 19.6 N 5 6 1017.3 - 0.0 - - 10 - - - -
05/05:30pm 21.6 N 7 8 1017.4 - 0.0 - - 10 - - - -
05/05:00pm 23.1 N 7 9 1017.4 - 0.0 - - 10 - - - -
05/04:30pm 24.3 N 8 10 1017.6 - 0.0 - - 10 - - - -
05/04:00pm 25.4 N 6 8 1017.8 - 0.0 - - 10 - - - -
05/03:30pm 25.0 N 7 8 1017.8 - 0.0 - - 10 - - - -
05/03:00pm 25.5 NE 7 9 1017.8 - 0.0 - - 10 - - - -
05/02:30pm 25.4 NNE 6 7 1018.0 - 0.0 - - 10 - - - -
05/02:00pm 25.4 NNE 4 7 1018.3 - 0.0 - - 10 - - - -
05/01:30pm 25.0 NE 5 7 1018.6 - 0.0 - - 10 - - - -
05/01:00pm 24.3 ENE 4 7 1019.1 - 0.0 - - 10 - - - -
05/12:30pm 24.3 NE 5 7 1019.5 - 0.0 - - 10 - - - -
05/12:00pm 24.7 ESE 3 6 1019.8 - 0.0 - - 10 - - - -
05/11:30am 22.9 ESE 5 7 1020.2 - 0.0 - - 10 - - - -
05/11:00am 22.7 SE 4 7 1020.5 - 0.0 - - 10 - - - -
05/10:30am 22.8 SE 5 8 1020.7 - 0.0 - - 10 - - - -
05/10:00am 21.0 SE 5 7 1020.9 - 0.0 - - 10 - - - -
05/09:30am 20.1 S 5 8 1020.9 - 0.0 - - 10 - - - -
05/09:00am 19.0 SSW 6 8 1020.6 - 0.0 - - 10 - - - -
05/08:30am 17.2 SW 5 7 1020.5 - 0.0 - - 10 - - - -
05/08:00am 14.4 WSW 6 6 1020.3 - 0.0 - - 10 - - - -
05/07:30am 11.7 SW 6 7 1019.8 - 0.0 - - 10 - - - -
05/07:00am 11.9 SW 6 7 1019.4 - 0.0 - - 10 - - - -
05/06:30am 12.0 SW 8 9 1019.1 - 0.0 - - 10 - - - -
05/06:00am 12.4 SW 6 9 1018.9 - 0.0 - - 10 - - - -
05/05:30am 12.3 SW 8 10 1018.8 - 0.0 - - 10 - - - -
05/05:00am 12.0 SW 10 11 1018.8 - 0.0 - - 10 - - - -
05/04:30am 12.1 SW 8 9 1018.8 - 0.0 - - 10 - - - -
05/04:00am 12.3 SW 8 9 1018.8 - 0.0 - - 10 - - - -
05/03:30am 13.1 SW 9 10 1018.9 - 0.0 - - 10 - - - -
05/03:00am 13.2 SW 10 11 1018.8 - 0.0 - - 10 - - - -
05/02:30am 13.7 SW 9 11 1019.0 - 0.0 - - 10 - - - -
05/02:00am 14.7 SW 8 10 1019.0 - 0.0 - - 10 - - - -
05/01:30am 15.1 SW 9 10 1019.2 - 0.0 - - 10 - - - -
05/01:00am 14.9 WSW 7 9 1019.3 - 0.0 - - 10 - - - -
05/12:30am 15.0 SW 8 10 1019.5 - 0.0 - - 10 - - - -
05/12:00am 15.1 SW 8 10 1019.3 - 0.0 - - 10 - - - -
 
Date/Time
WST
Temp

°C
Wind Pressure Rain
since 9am
mm
Weather Cloud Vis
km
Sea
Height
m
Swell
Dir
 
Speed
knots
Gust
knots
hPa Trend Height
m
Period
s
Dir
04/11:30pm 16.7 SSW 9 12 1019.4 - 0.0 - - 10 - - - -
04/11:00pm 17.6 SSW 11 13 1019.4 - 0.0 - - 10 - - - -
04/10:30pm 17.3 SSW 9 11 1019.5 - 0.0 - - 10 - - - -
04/10:00pm 16.5 SW 8 10 1019.6 - 0.0 - - 10 - - - -
04/09:30pm 16.4 SW 7 8 1019.6 - 0.0 - - 10 - - - -
04/09:00pm 17.3 SW 8 9 1019.5 - 0.0 - - 10 - - - -
04/08:30pm 17.5 SW 8 9 1019.4 - 0.0 - - 10 - - - -
04/08:00pm 17.8 SW 9 11 1019.2 - 0.0 - - 10 - - - -
04/07:30pm 17.6 SW 8 10 1018.9 - 0.0 - - 10 - - - -
04/07:00pm 18.8 WSW 9 11 1018.7 - 0.0 - - 10 - - - -
04/06:30pm 19.4 W 8 9 1018.5 - 0.0 - - 10 - - - -
04/06:00pm 21.6 W 7 8 1018.3 - 0.0 - - 10 - - - -
04/05:30pm 24.5 NNW 4 5 1018.2 - 0.0 - - 10 - - - -
04/05:00pm 26.1 N 4 5 1018.1 - 0.0 - - 10 - - - -
04/04:30pm 27.8 N 2 5 1018.0 - 0.0 - - 10 - - - -
04/04:00pm 27.6 N 4 5 1018.2 - 0.0 - - 10 - - - -
04/03:30pm 27.9 N 5 7 1018.3 - 0.0 - - 10 - - - -
04/03:00pm 27.0 NNW 5 8 1018.4 - 0.0 - - 10 - - - -
04/02:30pm 26.5 N 5 6 1018.7 - 0.0 - - 10 - - - -
04/02:00pm 25.3 NE 5 7 1019.0 - 0.0 - - 10 - - - -
04/01:30pm 25.0 ENE 5 7 1019.3 - 0.0 - - 10 - - - -
04/01:00pm 25.3 ENE 4 5 1019.5 - 0.0 - - 10 - - - -
04/12:30pm 25.2 ENE 3 5 1020.0 - 0.0 - - 10 - - - -
04/12:00pm 23.7 E 5 7 1020.2 - 0.0 - - 10 - - - -
04/11:30am 23.2 SE 5 7 1020.6 - 0.0 - - 10 - - - -
04/11:00am 22.7 SE 5 6 1020.9 - 0.0 - - 10 - - - -
04/10:30am 21.8 SE 5 7 1021.2 - 0.0 - - 10 - - - -
04/10:00am 20.7 SSE 5 7 1021.3 - 0.0 - - 10 - - - -
04/09:30am 19.8 ESE 2 4 1021.4 - 0.0 - - 10 - - - -
04/09:00am 18.3 SSW 6 7 1021.0 - 0.0 - - 10 - - - -
04/08:30am 16.6 SW 4 6 1021.0 - 0.0 - - 10 - - - -
04/08:00am 13.0 SW 6 7 1020.5 - 0.0 - - 10 - - - -
04/07:30am 11.4 SW 5 6 1020.3 - 0.0 - - 10 - - - -
04/07:00am 11.1 WSW 7 8 1020.0 - 0.0 - - 10 - - - -
04/06:30am 11.1 SW 7 8 1019.9 - 0.0 - - 10 - - - -
04/06:00am 11.7 WSW 9 10 1019.7 - 0.0 - - 10 - - - -
04/05:30am 11.5 WSW 9 10 1019.8 - 0.0 - - 10 - - - -
04/05:00am 11.4 SW 7 8 1019.8 - 0.0 - - 10 - - - -
04/04:30am 11.8 WSW 8 9 1019.6 - 0.0 - - 10 - - - -
04/04:00am 11.5 SW 8 9 1019.7 - 0.0 - - 10 - - - -
04/03:30am 12.3 SSW 6 7 1019.9 - 0.0 - - 10 - - - -
04/03:00am 12.4 SW 7 8 1019.7 - 0.0 - - 10 - - - -
04/02:30am 12.7 SW 7 8 1019.9 - 0.0 - - 10 - - - -
04/02:00am 12.6 SSW 8 9 1020.0 - 0.0 - - 10 - - - -
04/01:30am 13.4 SW 9 10 1020.1 - 0.0 - - 10 - - - -
04/01:00am 13.8 SW 9 10 1020.3 - 0.0 - - 10 - - - -
04/12:30am 14.6 SW 7 8 1020.4 - 0.0 - - 10 - - - -
04/12:00am 15.1 SW 8 9 1020.3 - 0.0 - - 10 - - - -
 
Date/Time
WST
Temp

°C
Wind Pressure Rain
since 9am
mm
Weather Cloud Vis
km
Sea
Height
m
Swell
Dir
 
Speed
knots
Gust
knots
hPa Trend Height
m
Period
s
Dir
03/11:30pm 15.9 SSW 9 11 1020.6 - 0.0 - - 10 - - - -
03/11:00pm 17.0 SSW 10 12 1020.7 - 0.0 - - 10 - - - -
03/10:30pm 16.3 SSW 9 11 1020.7 - 0.0 - - 10 - - - -
03/10:00pm 15.7 SW 8 9 1020.6 - 0.0 - - 10 - - - -
03/09:30pm 16.7 SSW 7 8 1020.4 - 0.0 - - 10 - - - -
03/09:00pm 17.2 SW 3 5 1020.3 - 0.0 - - 10 - - - -
03/08:30pm 17.3 WSW 6 7 1020.3 - 0.0 - - 10 - - - -
03/08:00pm 18.3 WSW 7 8 1020.1 - 0.0 - - 10 - - - -
03/07:30pm 19.0 WSW 9 12 1019.9 - 0.0 - - 10 - - - -
03/07:00pm 18.7 WNW 6 7 1019.6 - 0.0 - - 10 - - - -
03/06:30pm 22.4 NW 5 5 1019.3 - 0.0 - - 10 - - - -
03/06:00pm 22.9 NNW 4 5 1019.0 - 0.0 - - 10 - - - -
03/05:30pm 24.0 N 5 5 1018.9 - 0.0 - - 10 - - - -
03/05:00pm 25.5 N 6 7 1018.8 - 0.0 - - 10 - - - -
03/04:30pm 26.9 N 6 8 1018.7 - 0.0 - - 10 - - - -
03/04:00pm 27.4 N 5 7 1018.8 - 0.0 - - 10 - - - -
03/03:30pm 27.5 NNE 5 8 1018.8 - 0.0 - - 10 - - - -
03/03:00pm 27.0 ENE 5 6 1018.8 - 0.0 - - 10 - - - -
03/02:30pm 26.7 E 6 8 1019.0 - 0.0 - - 10 - - - -
03/02:00pm 27.2 ESE 7 10 1019.3 - 0.0 - - 10 - - - -
03/01:30pm 27.2 SE 8 11 1019.7 - 0.0 - - 10 - - - -
03/01:00pm 26.9 SE 9 12 1019.9 - 0.0 - - 10 - - - -
03/12:30pm 26.1 SE 9 11 1020.3 - 0.0 - - 10 - - - -
03/12:00pm 25.9 ESE 6 8 1020.5 - 0.0 - - 10 - - - -
03/11:30am 25.1 SE 7 9 1021.1 - 0.0 - - 10 - - - -

Other Formats:

Comma delimited format used in spreadsheet applications
http://www.bom.gov.au/fwo/IDW60701/IDW60701.94302.axf

JavaScript Object Notation format (JSON) in row-major order
http://www.bom.gov.au/fwo/IDW60701/IDW60701.94302.json